Chimay, Belgium
Current Conditions -  °F | °C
As of 11:55 PM on Friday 19 Dec 2014 (Local Time) from EBFS Reporting Station
Clear Clear  
Wind Chill: 33°   Ceiling: Unl
Heat Index: 39°   Visibility: 6mi
Dew Point: 34°   Wind: 9mph
Humidity: 81%   Direction: 260°W
Pressure: 30.21"   Gusts: NA
Location:  50.05°N, 4.32°E
Report Text: EBFS 192255Z AUTO 26008KT 9999 NCD 04/01 Q1023 BLU
Loading
Personal Weather Stations






























Interactive Weather Map New forecast layout! Learn more

10-Day Weather Forecast

Advertisements
Track Severe Weather on mobile